Time;durP1;ratioP1;P1;durP2;ratioP2;P2;SDS_P1;SDS_P2;PMS_P1;PMS_P2;Temp;Humidity;BMP_temperature;BMP_pressure;BME280_temperature;BME280_humidity;BME280_pressure;Samples;Min_cycle;Max_cycle;Signal;HPM_P1;HPM_P2
2022/08/03 00:00:40;;;;;;;14.23;13.07;;;;;;;21.43;55.55;100415.50;4881071;28;96887;-83
2022/08/03 00:03:06;;;;;;;14.00;12.77;;;;;;;21.35;55.86;100424.09;4915545;28;97166;-83
2022/08/03 00:05:32;;;;;;;14.82;13.52;;;;;;;21.29;56.04;100424.56;4881021;28;101270;-83
2022/08/03 00:07:58;;;;;;;13.45;12.35;;;;;;;21.13;55.88;100402.69;4894673;28;100945;-83
2022/08/03 00:10:24;;;;;;;13.02;12.00;;;;;;;21.22;56.15;100424.19;4896779;28;97158;-82
2022/08/03 00:12:49;;;;;;;15.20;12.73;;;;;;;21.36;55.74;100427.63;4912804;28;96948;-82
2022/08/03 00:15:15;;;;;;;14.45;13.18;;;;;;;21.25;56.16;100429.28;4910513;28;97553;-83
2022/08/03 00:17:41;;;;;;;12.88;12.00;;;;;;;21.27;56.13;100425.66;4908972;28;97797;-83
2022/08/03 00:20:06;;;;;;;14.30;12.68;;;;;;;21.09;56.29;100414.56;4889441;28;97304;-83
2022/08/03 00:22:34;;;;;;;13.65;12.45;;;;;;;21.13;56.52;100413.38;4896618;28;97072;-83
2022/08/03 00:24:59;;;;;;;13.82;12.73;;;;;;;21.19;56.40;100428.91;4893942;28;101933;-83
2022/08/03 00:27:25;;;;;;;13.52;12.52;;;;;;;21.16;56.44;100426.47;4914027;28;97582;-83
2022/08/03 00:29:50;;;;;;;12.88;12.05;;;;;;;21.16;56.42;100432.66;4896889;28;96837;-83
2022/08/03 00:32:16;;;;;;;13.07;12.18;;;;;;;21.05;56.80;100427.28;4881351;28;97053;-83
2022/08/03 00:34:41;;;;;;;13.85;12.85;;;;;;;21.08;57.04;100437.72;4912259;28;98424;-83
2022/08/03 00:37:07;;;;;;;13.73;12.73;;;;;;;20.94;56.98;100406.78;4896912;28;103340;-83
2022/08/03 00:39:32;;;;;;;13.55;12.55;;;;;;;21.21;56.61;100425.16;4896457;28;97229;-83
2022/08/03 00:42:01;;;;;;;14.07;12.88;;;;;;;21.14;56.68;100429.25;4881435;28;97001;-82
2022/08/03 00:44:27;;;;;;;13.90;12.90;;;;;;;20.98;57.26;100421.56;4906644;28;101040;-83
2022/08/03 00:46:52;;;;;;;13.45;12.43;;;;;;;20.90;57.08;100420.47;4912981;28;98019;-83
2022/08/03 00:49:18;;;;;;;14.00;13.00;;;;;;;20.93;57.13;100423.75;4897422;28;96920;-82
2022/08/03 00:51:43;;;;;;;14.50;13.40;;;;;;;20.97;57.28;100427.91;4895312;28;97021;-82
2022/08/03 00:54:09;;;;;;;13.73;12.65;;;;;;;20.92;57.54;100430.06;4900060;28;101539;-82
2022/08/03 00:56:35;;;;;;;13.50;12.52;;;;;;;20.64;57.62;100398.41;4902942;28;101394;-82
2022/08/03 00:59:00;;;;;;;14.27;13.23;;;;;;;20.85;57.57;100417.28;4912189;28;96755;-83
2022/08/03 01:01:26;;;;;;;14.07;13.07;;;;;;;20.60;57.95;100404.94;4896851;28;97362;-83
2022/08/03 01:03:51;;;;;;;15.48;14.05;;;;;;;20.53;57.62;100385.88;4912332;28;99927;-82
2022/08/03 01:06:19;;;;;;;13.73;12.80;;;;;;;20.71;57.85;100423.63;4896494;28;100945;-83
2022/08/03 01:09:03;;;;;;;15.07;13.82;;;;;;;20.61;58.20;100420.81;4912948;28;97112;-82
2022/08/03 01:11:57;;;;;;;14.55;13.55;;;;;;;20.55;58.30;100421.28;4913179;28;96732;-83
2022/08/03 01:14:56;;;;;;;14.38;12.93;;;;;;;20.63;58.12;100418.06;4895857;28;101414;-82
2022/08/03 01:17:31;;;;;;;14.20;13.18;;;;;;;20.63;58.09;100423.38;4875454;28;97944;-82
2022/08/03 01:20:03;;;;;;;14.52;13.27;;;;;;;20.60;58.18;100421.81;4897060;28;96760;-83
2022/08/03 01:22:53;;;;;;;14.50;13.50;;;;;;;20.51;58.66;100419.78;4880396;28;97050;-83
2022/08/03 01:25:43;;;;;;;15.68;14.45;;;;;;;20.47;58.64;100415.63;4913493;28;97843;-83
2022/08/03 01:28:28;;;;;;;14.70;13.40;;;;;;;20.49;58.65;100417.22;4897652;28;97888;-83
2022/08/03 01:30:55;;;;;;;14.40;13.30;;;;;;;20.37;58.79;100407.47;4907777;28;97126;-83
2022/08/03 01:33:24;;;;;;;14.38;13.18;;;;;;;20.37;59.04;100401.28;4893648;28;97029;-82
2022/08/03 01:35:56;;;;;;;15.57;14.27;;;;;;;20.42;58.84;100415.09;4889835;28;101531;-82
2022/08/03 01:38:26;;;;;;;15.70;14.40;;;;;;;20.26;59.40;100408.25;4896272;28;101231;-82
2022/08/03 01:40:53;;;;;;;15.50;14.00;;;;;;;20.23;59.43;100411.13;4911965;28;97070;-83
2022/08/03 01:43:20;;;;;;;16.50;15.23;;;;;;;20.17;59.85;100411.59;4893668;28;97097;-83
2022/08/03 01:45:47;;;;;;;14.70;13.68;;;;;;;20.15;59.74;100410.00;4886286;28;101548;-82
2022/08/03 01:48:14;;;;;;;15.40;14.10;;;;;;;20.05;60.19;100408.00;4907561;28;100903;-83
2022/08/03 01:50:41;;;;;;;16.02;14.73;;;;;;;20.01;60.56;100408.31;4895576;28;97629;-82
2022/08/03 01:53:08;;;;;;;15.07;13.93;;;;;;;19.99;60.60;100402.25;4896135;28;96749;-85
2022/08/03 01:55:35;;;;;;;15.80;14.35;;;;;;;20.04;60.36;100400.97;4896022;28;97469;-83
2022/08/03 01:58:02;;;;;;;15.82;14.45;;;;;;;20.03;60.53;100399.25;4912517;28;97885;-83
2022/08/03 02:00:28;;;;;;;15.02;13.73;;;;;;;20.02;60.50;100399.38;4911680;28;96872;-85
2022/08/03 02:02:54;;;;;;;14.77;13.48;;;;;;;19.98;60.77;100393.41;4895681;28;97019;-83
2022/08/03 02:05:20;;;;;;;15.00;13.68;;;;;;;20.02;60.76;100397.56;4895692;28;98319;-82
2022/08/03 02:07:47;;;;;;;15.00;13.55;;;;;;;19.94;61.00;100393.75;4874942;28;101379;-82
2022/08/03 02:10:15;;;;;;;15.63;14.43;;;;;;;19.83;60.90;100399.84;4894104;28;96677;-83
2022/08/03 02:12:43;;;;;;;15.35;14.25;;;;;;;19.78;61.27;100397.53;4885031;28;97120;-82
2022/08/03 02:15:09;;;;;;;15.23;14.02;;;;;;;19.77;61.46;100394.94;4889615;28;101281;-82
2022/08/03 02:17:35;;;;;;;16.67;15.32;;;;;;;19.65;61.83;100389.53;4898233;28;101377;-85
2022/08/03 02:20:01;;;;;;;15.82;14.43;;;;;;;19.68;61.58;100388.47;4912809;28;96681;-82
2022/08/03 02:22:28;;;;;;;14.95;13.95;;;;;;;19.57;62.08;100389.19;4895575;28;96906;-84
2022/08/03 02:24:53;;;;;;;15.07;13.95;;;;;;;19.56;62.32;100387.50;4889044;28;98012;-82
2022/08/03 02:27:22;;;;;;;15.68;14.15;;;;;;;19.61;62.24;100393.34;4902123;28;97950;-83
2022/08/03 02:29:51;;;;;;;15.93;14.45;;;;;;;19.59;62.31;100395.25;4893511;28;98374;-84
2022/08/03 02:32:21;;;;;;;15.68;14.40;;;;;;;19.68;62.03;100393.78;4912280;28;97005;-82
2022/08/03 02:34:48;;;;;;;15.32;13.85;;;;;;;19.73;61.85;100396.13;4878842;28;101447;-84
2022/08/03 02:37:17;;;;;;;15.05;13.93;;;;;;;19.69;61.98;100392.81;4894948;28;101413;-82
2022/08/03 02:39:44;;;;;;;15.50;14.30;;;;;;;19.65;61.69;100383.34;4893672;28;96743;-82
2022/08/03 02:42:11;;;;;;;15.82;14.38;;;;;;;19.45;62.63;100371.41;4903893;28;96897;-82
2022/08/03 02:44:37;;;;;;;15.20;13.85;;;;;;;19.48;62.60;100386.31;4889563;28;102277;-84
2022/08/03 02:47:05;;;;;;;15.57;14.48;;;;;;;19.60;62.31;100390.78;4894980;28;100966;-85
2022/08/03 02:49:31;;;;;;;15.55;14.27;;;;;;;19.64;62.54;100386.97;4904463;28;96765;-84
2022/08/03 02:51:56;;;;;;;15.77;14.55;;;;;;;19.45;62.48;100380.25;4911699;28;98919;-84
2022/08/03 02:54:23;;;;;;;15.88;14.57;;;;;;;19.46;62.46;100373.13;4892091;28;101115;-84
2022/08/03 02:56:51;;;;;;;14.90;13.63;;;;;;;19.50;62.62;100387.06;4895688;28;97959;-84
2022/08/03 02:59:17;;;;;;;15.02;13.88;;;;;;;19.47;62.34;100381.97;4911283;28;96772;-85
2022/08/03 03:01:43;;;;;;;15.80;14.50;;;;;;;19.45;62.84;100404.22;4894599;28;96957;-82
2022/08/03 03:04:09;;;;;;;17.27;14.27;;;;;;;19.42;62.83;100398.25;4891923;28;97558;-84
2022/08/03 03:06:36;;;;;;;15.38;14.07;;;;;;;19.40;62.94;100400.16;4895491;28;97955;-85
2022/08/03 03:09:01;;;;;;;14.57;13.23;;;;;;;19.43;62.68;100378.66;4895010;28;97097;-84
2022/08/03 03:11:27;;;;;;;15.45;13.60;;;;;;;19.56;62.33;100402.63;4911673;28;96847;-84
2022/08/03 03:13:55;;;;;;;16.00;14.68;;;;;;;19.49;62.50;100398.66;4910694;28;98064;-83
2022/08/03 03:16:21;;;;;;;15.13;14.02;;;;;;;19.42;62.82;100392.94;4894934;28;97585;-84
2022/08/03 03:18:47;;;;;;;15.52;14.32;;;;;;;19.47;62.80;100397.94;4910385;28;96773;-83
2022/08/03 03:21:15;;;;;;;15.63;14.25;;;;;;;19.38;62.57;100388.78;4895628;28;96980;-84
2022/08/03 03:23:42;;;;;;;15.52;14.32;;;;;;;19.49;62.46;100404.88;4904448;28;101434;-84
2022/08/03 03:26:08;;;;;;;15.82;14.32;;;;;;;19.48;62.67;100407.63;4891628;28;97211;-84
2022/08/03 03:28:35;;;;;;;15.20;14.10;;;;;;;19.41;62.89;100410.72;4886181;28;96656;-84
2022/08/03 03:31:02;;;;;;;15.20;13.80;;;;;;;19.42;62.51;100395.59;4894471;28;96911;-84
2022/08/03 03:33:27;;;;;;;15.40;13.98;;;;;;;19.41;62.46;100392.09;4891846;28;101792;-83
2022/08/03 03:35:53;;;;;;;14.85;13.38;;;;;;;19.47;62.31;100404.13;4889447;28;101605;-84
2022/08/03 03:38:18;;;;;;;15.57;14.18;;;;;;;19.52;62.60;100407.31;4896096;28;96835;-84
2022/08/03 03:40:44;;;;;;;15.93;14.43;;;;;;;19.49;62.67;100410.19;4888172;28;96706;-83
2022/08/03 03:43:11;;;;;;;15.63;14.40;;;;;;;19.35;63.11;100411.13;4891769;28;101362;-84
2022/08/03 03:45:37;;;;;;;16.65;15.35;;;;;;;19.35;63.05;100403.16;4902907;28;98012;-84
2022/08/03 03:48:03;;;;;;;16.40;14.90;;;;;;;19.36;62.86;100398.69;4910689;28;96727;-83
2022/08/03 03:50:30;;;;;;;15.70;14.52;;;;;;;19.44;62.89;100407.00;4894499;28;96938;-84
2022/08/03 03:52:55;;;;;;;17.35;15.90;;;;;;;19.46;62.67;100410.41;4893460;28;101758;-83
2022/08/03 03:55:21;;;;;;;17.10;15.48;;;;;;;19.37;63.34;100408.34;4901784;28;101079;-83
2022/08/03 03:57:46;;;;;;;16.90;15.50;;;;;;;19.35;63.23;100420.94;4916195;28;96675;-83
2022/08/03 04:00:14;;;;;;;16.45;15.15;;;;;;;19.38;63.04;100423.38;4894248;28;97426;-83
2022/08/03 04:02:39;;;;;;;16.52;15.10;;;;;;;19.23;63.21;100396.88;4894667;28;101530;-83
2022/08/03 04:10:59;;;;;;;16.77;15.43;;;;;;;19.37;63.49;100417.22;4893510;28;96943;-83
2022/08/03 04:13:52;;;;;;;16.45;15.15;;;;;;;19.40;63.41;100417.00;4891962;28;98270;-83
2022/08/03 04:16:20;;;;;;;16.65;15.25;;;;;;;19.13;63.42;100390.47;4881064;28;101770;-83
2022/08/03 04:18:51;;;;;;;16.40;14.80;;;;;;;19.20;63.89;100404.22;4904681;28;96699;-83
2022/08/03 04:21:19;;;;;;;16.52;15.07;;;;;;;19.38;63.53;100421.56;4910197;28;96698;-84
2022/08/03 04:23:47;;;;;;;16.85;15.45;;;;;;;19.42;63.52;100424.88;4891339;28;97848;-83
2022/08/03 04:26:15;;;;;;;16.88;15.40;;;;;;;19.35;63.73;100429.78;4864443;28;101532;-83
2022/08/03 04:28:44;;;;;;;16.13;14.90;;;;;;;19.30;63.98;100420.41;4910603;28;98342;-83
2022/08/03 04:31:11;;;;;;;17.65;16.05;;;;;;;19.42;63.97;100438.19;4896833;28;96756;-83
2022/08/03 04:33:38;;;;;;;16.63;15.43;;;;;;;19.43;63.55;100432.75;4898212;28;97513;-82
2022/08/03 04:36:06;;;;;;;16.17;14.90;;;;;;;19.32;64.01;100432.66;4896694;28;101257;-82
2022/08/03 04:38:54;;;;;;;16.83;15.52;;;;;;;19.33;63.96;100428.16;4913873;28;96858;-85
2022/08/03 04:41:22;;;;;;;17.52;15.95;;;;;;;19.32;64.09;100435.31;4914218;28;96872;-82
2022/08/03 04:43:48;;;;;;;16.13;14.70;;;;;;;19.42;63.61;100438.19;4893335;28;101655;-81
2022/08/03 04:46:14;;;;;;;17.05;15.43;;;;;;;19.51;63.57;100442.00;4881288;28;101518;-84
2022/08/03 04:48:41;;;;;;;16.02;14.80;;;;;;;19.43;63.75;100434.53;4897374;28;96773;-82
2022/08/03 04:51:07;;;;;;;16.60;15.20;;;;;;;19.47;63.72;100443.19;4880976;28;96970;-82
2022/08/03 04:53:32;;;;;;;17.42;15.43;;;;;;;19.49;63.50;100442.13;4896513;28;97592;-85
2022/08/03 04:56:04;;;;;;;17.42;14.90;;;;;;;19.30;63.61;100415.06;4912402;28;98030;-83
2022/08/03 04:58:30;;;;;;;16.30;14.75;;;;;;;19.35;63.90;100418.28;4894977;28;96935;-85
2022/08/03 05:00:55;;;;;;;17.13;15.43;;;;;;;19.29;64.14;100416.88;4897201;28;97430;-82
2022/08/03 05:03:21;;;;;;;16.23;14.68;;;;;;;19.40;63.97;100419.66;4913438;28;97588;-82
2022/08/03 05:05:46;;;;;;;17.00;15.35;;;;;;;19.43;63.88;100422.13;4908296;28;101004;-82
2022/08/03 05:08:12;;;;;;;15.85;14.55;;;;;;;19.61;63.59;100430.63;4868621;28;96738;-82
2022/08/03 05:10:37;;;;;;;16.88;15.57;;;;;;;19.63;63.79;100435.81;4909183;28;97129;-82
2022/08/03 05:13:03;;;;;;;17.35;15.75;;;;;;;19.78;63.29;100437.47;4898100;28;104725;-83
2022/08/03 05:15:28;;;;;;;16.70;15.25;;;;;;;19.75;63.43;100419.03;4872372;28;99894;-84
2022/08/03 05:17:54;;;;;;;16.30;14.80;;;;;;;20.06;62.56;100433.66;4881290;28;96737;-83
2022/08/03 05:20:19;;;;;;;16.27;15.07;;;;;;;20.47;61.60;100428.97;4896464;28;97036;-83
2022/08/03 05:22:45;;;;;;;17.10;15.80;;;;;;;20.74;60.60;100416.28;4912821;28;96909;-83
2022/08/03 05:25:10;;;;;;;16.77;15.48;;;;;;;20.88;60.42;100425.06;4912352;28;97507;-83
2022/08/03 05:27:36;;;;;;;16.73;15.20;;;;;;;20.87;60.50;100431.38;4893603;28;96978;-84
2022/08/03 05:30:02;;;;;;;15.98;14.65;;;;;;;20.90;60.23;100421.31;4898679;28;97389;-83
2022/08/03 05:32:27;;;;;;;16.67;15.13;;;;;;;21.11;59.93;100436.66;4908045;28;97489;-83
2022/08/03 05:34:53;;;;;;;16.83;15.13;;;;;;;21.52;58.99;100438.81;4895713;28;97511;-83
2022/08/03 05:37:18;;;;;;;16.73;15.05;;;;;;;21.54;58.74;100444.91;4912735;28;96826;-83
2022/08/03 05:39:44;;;;;;;16.50;15.30;;;;;;;22.10;56.98;100431.53;4911665;28;97372;-84
2022/08/03 05:42:10;;;;;;;16.73;15.35;;;;;;;22.77;55.92;100433.22;4912171;28;97365;-84
2022/08/03 05:44:37;;;;;;;16.42;15.15;;;;;;;23.75;53.46;100407.13;4895652;28;101449;-83
2022/08/03 05:47:04;;;;;;;17.58;15.93;;;;;;;25.00;49.94;100440.53;4896351;28;96755;-83
2022/08/03 05:49:29;;;;;;;16.83;15.32;;;;;;;25.55;49.33;100437.22;4897686;28;96754;-83
2022/08/03 05:51:54;;;;;;;16.95;15.45;;;;;;;26.44;47.38;100440.19;4923837;28;97574;-85
2022/08/03 05:54:20;;;;;;;16.55;15.13;;;;;;;27.39;45.24;100441.41;4879788;28;101568;-84
2022/08/03 05:56:45;;;;;;;16.77;15.27;;;;;;;27.81;44.23;100402.09;4879682;28;97834;-84
2022/08/03 05:59:11;;;;;;;15.55;14.25;;;;;;;28.26;42.91;100428.72;4879745;28;97297;-84
2022/08/03 06:01:36;;;;;;;16.48;15.05;;;;;;;28.80;41.63;100421.09;4909077;28;101369;-84
2022/08/03 06:04:02;;;;;;;18.15;16.40;;;;;;;29.36;41.04;100412.31;4892000;28;109455;-83
2022/08/03 06:06:27;;;;;;;16.60;15.43;;;;;;;30.84;38.97;100438.56;4891244;28;96790;-84
2022/08/03 06:08:53;;;;;;;17.55;16.25;;;;;;;31.73;37.20;100432.47;4912598;28;97005;-86
2022/08/03 06:11:19;;;;;;;18.00;15.88;;;;;;;32.04;36.33;100435.00;4879302;28;101673;-86
2022/08/03 06:13:44;;;;;;;17.42;15.88;;;;;;;32.18;35.78;100415.13;4912481;28;98645;-86
2022/08/03 06:16:10;;;;;;;16.95;15.55;;;;;;;32.97;34.82;100418.88;4895099;28;96772;-86
2022/08/03 06:18:36;;;;;;;16.55;15.18;;;;;;;33.48;34.21;100418.66;4909403;28;96938;-86
2022/08/03 06:21:01;;;;;;;15.73;14.70;;;;;;;34.21;32.96;100425.38;4911460;28;97355;-86
2022/08/03 06:23:27;;;;;;;16.13;15.07;;;;;;;34.85;32.09;100434.09;4892644;28;97469;-86
2022/08/03 06:25:52;;;;;;;15.32;14.32;;;;;;;35.32;31.16;100429.53;4895230;28;102438;-87
2022/08/03 06:28:18;;;;;;;15.60;14.50;;;;;;;35.17;31.58;100427.03;4895632;28;96891;-86
2022/08/03 06:30:44;;;;;;;15.10;14.02;;;;;;;35.37;31.43;100416.06;4904121;28;101797;-86
2022/08/03 06:33:09;;;;;;;14.57;13.55;;;;;;;36.15;30.15;100420.72;4895589;28;98316;-87
2022/08/03 06:35:35;;;;;;;15.43;14.05;;;;;;;36.50;29.39;100413.78;4894999;28;99136;-88
2022/08/03 06:38:01;;;;;;;14.68;13.57;;;;;;;36.65;29.13;100421.72;4911720;28;96949;-87
2022/08/03 06:40:33;;;;;;;15.25;14.07;;;;;;;36.90;29.38;100419.00;4895432;28;97081;-87
2022/08/03 06:43:00;;;;;;;14.82;13.82;;;;;;;35.93;30.42;100426.47;4911527;28;97092;-87
2022/08/03 06:45:27;;;;;;;15.15;14.10;;;;;;;34.14;32.47;100416.31;4894915;28;98207;-87
2022/08/03 06:48:09;;;;;;;14.50;13.40;;;;;;;33.18;33.61;100435.19;4911627;28;96853;-87
2022/08/03 06:50:37;;;;;;;13.82;12.82;;;;;;;31.93;35.86;100432.78;4894997;28;101294;-87
2022/08/03 06:53:03;;;;;;;13.82;12.82;;;;;;;33.73;33.02;100429.94;4906230;28;98454;-86
2022/08/03 06:55:29;;;;;;;15.52;13.75;;;;;;;34.25;32.37;100421.19;4911574;28;96832;-87
2022/08/03 06:57:55;;;;;;;14.95;13.93;;;;;;;36.18;30.18;100423.00;4895349;28;96994;-86
2022/08/03 07:00:20;;;;;;;15.02;13.85;;;;;;;36.98;29.43;100431.56;4894759;28;101312;-87
2022/08/03 07:02:46;;;;;;;14.45;13.38;;;;;;;37.78;28.06;100426.19;4889056;28;100972;-87
2022/08/03 07:05:12;;;;;;;13.98;12.90;;;;;;;38.09;27.42;100405.19;4894893;28;98810;-87
2022/08/03 07:07:38;;;;;;;14.60;13.50;;;;;;;38.85;27.00;100409.16;4879550;28;97272;-86
2022/08/03 07:10:04;;;;;;;14.15;13.10;;;;;;;38.93;26.78;100399.75;4893690;28;98098;-87
2022/08/03 07:12:30;;;;;;;14.23;13.32;;;;;;;38.79;26.69;100404.59;4894923;28;101105;-87
2022/08/03 07:14:57;;;;;;;14.63;13.60;;;;;;;39.23;26.49;100407.88;4892487;28;96702;-87
2022/08/03 07:17:23;;;;;;;14.55;13.75;;;;;;;39.06;26.06;100415.13;4894341;28;97248;-88
2022/08/03 07:19:48;;;;;;;14.13;12.93;;;;;;;39.15;26.31;100410.97;4910956;28;98320;-87
2022/08/03 07:22:14;;;;;;;14.73;13.45;;;;;;;39.34;26.27;100415.28;4878324;28;101526;-87
2022/08/03 07:24:40;;;;;;;14.70;13.80;;;;;;;39.56;26.24;100401.78;4894419;28;97324;-87
2022/08/03 07:27:07;;;;;;;14.25;13.15;;;;;;;39.83;25.40;100415.00;4901455;28;96891;-87
2022/08/03 07:29:33;;;;;;;14.60;13.55;;;;;;;40.30;24.70;100414.88;4877507;28;101095;-88
2022/08/03 07:31:58;;;;;;;14.50;13.50;;;;;;;40.14;24.68;100405.44;4911055;28;98480;-87
2022/08/03 07:34:24;;;;;;;14.50;13.32;;;;;;;40.48;24.67;100400.88;4909825;28;97120;-86
2022/08/03 07:36:49;;;;;;;15.02;13.70;;;;;;;40.91;24.03;100412.38;4910450;28;97331;-87
2022/08/03 07:39:15;;;;;;;14.00;13.00;;;;;;;41.26;24.47;100408.53;4903462;28;101546;-87
2022/08/03 07:41:41;;;;;;;14.13;13.32;;;;;;;41.36;23.80;100400.41;4910829;28;97407;-86
2022/08/03 07:44:06;;;;;;;14.80;13.80;;;;;;;40.84;24.12;100411.69;4911056;28;96905;-86
2022/08/03 07:46:32;;;;;;;13.98;13.05;;;;;;;41.62;23.72;100401.63;4878610;28;96920;-87
2022/08/03 07:48:57;;;;;;;14.48;13.57;;;;;;;41.60;23.35;100393.63;4910889;28;98046;-87
2022/08/03 07:51:23;;;;;;;15.07;13.88;;;;;;;41.59;23.06;100394.69;4894025;28;100637;-87
2022/08/03 07:53:48;;;;;;;13.90;13.00;;;;;;;42.40;22.92;100402.28;4894334;28;97119;-87
2022/08/03 07:56:15;;;;;;;14.60;13.70;;;;;;;41.93;23.09;100407.53;4902973;28;97855;-87
2022/08/03 07:58:41;;;;;;;14.77;13.88;;;;;;;42.06;23.56;100404.38;4910428;28;97755;-88
2022/08/03 08:01:06;;;;;;;15.38;14.48;;;;;;;42.52;22.56;100404.88;4900230;28;98487;-87
2022/08/03 08:03:32;;;;;;;14.52;13.65;;;;;;;41.59;22.98;100391.09;4911126;28;96820;-87
2022/08/03 08:05:57;;;;;;;13.30;12.50;;;;;;;42.26;22.65;100401.00;4902131;28;96994;-87
2022/08/03 08:08:22;;;;;;;14.50;13.60;;;;;;;41.71;22.74;100413.03;4894524;28;98086;-86
2022/08/03 08:10:48;;;;;;;14.85;13.80;;;;;;;42.15;23.09;100407.50;4913819;28;98394;-87
2022/08/03 08:13:13;;;;;;;14.77;13.68;;;;;;;43.01;21.99;100395.63;4913080;28;97662;-87
2022/08/03 08:15:39;;;;;;;14.38;13.48;;;;;;;42.51;22.12;100398.53;4897873;28;98234;-86
2022/08/03 08:18:04;;;;;;;14.27;13.38;;;;;;;41.35;23.02;100396.00;4886841;28;99061;-84
2022/08/03 08:20:32;;;;;;;14.65;13.55;;;;;;;41.70;22.79;100405.84;4913300;28;97508;-86
2022/08/03 08:23:00;;;;;;;14.90;14.10;;;;;;;41.44;23.21;100388.13;4896893;28;97724;-86
2022/08/03 08:25:25;;;;;;;14.48;13.55;;;;;;;41.71;22.49;100400.06;4901644;28;97671;-86
2022/08/03 08:27:51;;;;;;;14.07;13.15;;;;;;;42.10;22.57;100399.19;4896766;28;101022;-86
2022/08/03 08:30:19;;;;;;;14.68;13.40;;;;;;;41.90;22.37;100394.28;4912573;28;97674;-87
2022/08/03 08:32:45;;;;;;;14.38;13.48;;;;;;;42.26;22.32;100390.78;4893855;28;96718;-86
2022/08/03 08:35:11;;;;;;;14.88;13.95;;;;;;;42.63;21.26;100398.34;4889496;28;96771;-87
2022/08/03 08:37:36;;;;;;;14.95;14.13;;;;;;;42.55;22.26;100400.75;4896799;28;100549;-86
2022/08/03 08:40:03;;;;;;;15.20;14.18;;;;;;;42.82;21.10;100378.66;4897316;28;101107;-86
2022/08/03 08:42:30;;;;;;;14.15;13.35;;;;;;;42.70;21.11;100396.19;4896640;28;97101;-87
2022/08/03 08:44:56;;;;;;;14.80;13.90;;;;;;;43.02;20.92;100387.06;4897159;28;96931;-86
2022/08/03 08:47:24;;;;;;;14.60;13.73;;;;;;;43.15;20.83;100388.59;4880109;28;98805;-87
2022/08/03 08:49:56;;;;;;;15.05;14.05;;;;;;;43.36;21.34;100387.59;4912971;28;97352;-86
2022/08/03 08:52:24;;;;;;;15.00;14.10;;;;;;;42.84;20.95;100385.56;4913199;28;98513;-86
2022/08/03 08:54:51;;;;;;;15.38;13.98;;;;;;;43.54;20.17;100396.56;4893836;28;97351;-86
2022/08/03 08:57:17;;;;;;;14.73;13.93;;;;;;;42.95;20.45;100386.50;4880814;28;101868;-86
2022/08/03 08:59:43;;;;;;;14.65;13.85;;;;;;;43.26;20.49;100390.31;4912853;28;97897;-86
2022/08/03 09:02:09;;;;;;;14.50;13.70;;;;;;;43.13;20.14;100386.06;4896884;28;96952;-84
2022/08/03 09:04:37;;;;;;;14.90;14.00;;;;;;;42.94;20.72;100388.41;4896998;28;97388;-85
2022/08/03 09:07:04;;;;;;;13.82;13.02;;;;;;;43.27;20.85;100388.38;4896910;28;97637;-86
2022/08/03 09:09:30;;;;;;;14.02;13.23;;;;;;;43.26;21.12;100383.94;4905209;28;97180;-86
2022/08/03 09:11:55;;;;;;;14.40;13.50;;;;;;;43.25;21.14;100379.53;4907669;28;98009;-86
2022/08/03 09:14:20;;;;;;;13.65;12.75;;;;;;;43.77;20.13;100393.31;4886497;28;96854;-85
2022/08/03 09:17:07;;;;;;;14.70;13.70;;;;;;;43.69;20.88;100384.72;4900219;28;101872;-86
2022/08/03 09:19:33;;;;;;;14.88;13.98;;;;;;;43.15;20.17;100372.84;4896434;28;101048;-86
2022/08/03 09:22:11;;;;;;;14.50;13.35;;;;;;;42.45;20.59;100384.97;4909989;28;98972;-85
2022/08/03 09:24:37;;;;;;;13.98;12.75;;;;;;;41.71;21.47;100372.53;4899764;28;96860;-86
2022/08/03 09:27:12;;;;;;;13.77;12.98;;;;;;;41.93;21.51;100369.78;4897035;28;98543;-85
2022/08/03 09:29:37;;;;;;;12.98;12.07;;;;;;;40.94;21.89;100367.84;4896367;28;101457;-85
2022/08/03 09:32:04;;;;;;;14.27;13.07;;;;;;;39.73;23.65;100366.16;4896197;28;99771;-85
2022/08/03 09:34:29;;;;;;;13.15;12.35;;;;;;;40.17;23.71;100374.72;4911831;28;96817;-84
2022/08/03 09:36:57;;;;;;;12.32;11.63;;;;;;;39.35;23.35;100369.47;4880006;28;101099;-86
2022/08/03 09:39:25;;;;;;;12.80;12.10;;;;;;;39.45;23.83;100368.84;4895219;28;97438;-85
2022/08/03 09:42:11;;;;;;;13.73;12.73;;;;;;;39.38;24.24;100358.00;4893744;28;97187;-85
2022/08/03 09:44:40;;;;;;;13.27;12.20;;;;;;;39.35;24.41;100366.72;4895833;28;96922;-85
2022/08/03 09:47:08;;;;;;;12.80;12.00;;;;;;;38.94;24.99;100360.25;4913083;28;97492;-85
2022/08/03 09:49:34;;;;;;;12.48;11.80;;;;;;;38.85;24.62;100370.75;4905936;28;101341;-85
2022/08/03 09:52:02;;;;;;;12.30;11.63;;;;;;;38.52;25.28;100374.03;4914142;28;96609;-86
2022/08/03 09:54:31;;;;;;;13.00;12.23;;;;;;;38.34;25.32;100361.19;4895720;28;96875;-86
2022/08/03 09:56:57;;;;;;;;;;;;;;;37.89;25.67;100368.97;4893971;28;98872;-88
2022/08/03 09:59:28;;;;;;;12.43;11.73;;;;;;;37.46;25.98;100365.22;4872743;28;100705;-87
2022/08/03 10:01:54;;;;;;;12.73;12.02;;;;;;;37.91;25.82;100343.03;4892107;28;97693;-87
2022/08/03 10:04:20;;;;;;;12.80;12.00;;;;;;;37.51;26.18;100342.69;4896025;28;96867;-85
2022/08/03 10:07:09;;;;;;;11.68;10.88;;;;;;;37.59;25.85;100356.91;4895272;28;101296;-85
2022/08/03 10:09:36;;;;;;;12.20;11.50;;;;;;;37.35;25.96;100363.25;4901410;28;97471;-84
2022/08/03 10:12:11;;;;;;;12.00;11.20;;;;;;;37.01;26.69;100360.03;4895424;28;96981;-85
2022/08/03 10:14:38;;;;;;;11.60;10.90;;;;;;;36.58;27.00;100351.75;4891689;28;96903;-85
2022/08/03 10:17:04;;;;;;;11.75;11.05;;;;;;;36.61;27.77;100354.03;4908306;28;97820;-85
2022/08/03 10:19:29;;;;;;;11.02;10.43;;;;;;;36.27;27.41;100362.41;4911472;28;97515;-84
2022/08/03 10:22:00;;;;;;;11.52;10.82;;;;;;;35.58;27.50;100336.72;4901274;28;96751;-85
2022/08/03 10:24:27;;;;;;;12.00;11.07;;;;;;;35.01;28.28;100345.63;4878370;28;96909;-84
2022/08/03 10:27:03;;;;;;;12.18;11.45;;;;;;;35.13;29.43;100354.84;4891081;28;98311;-85
2022/08/03 10:29:32;;;;;;;12.23;11.32;;;;;;;34.44;29.17;100343.28;4894527;28;101142;-84
2022/08/03 10:31:59;;;;;;;12.10;11.30;;;;;;;34.46;29.94;100343.06;4911450;28;97311;-84
2022/08/03 10:34:28;;;;;;;12.57;11.50;;;;;;;34.32;30.11;100346.81;4910926;28;97704;-85
2022/08/03 10:36:56;;;;;;;12.07;11.38;;;;;;;33.90;30.88;100346.91;4898243;28;101614;-85
2022/08/03 10:39:23;;;;;;;11.88;11.10;;;;;;;33.50;31.40;100352.13;4907080;28;97392;-85
2022/08/03 10:41:49;;;;;;;11.90;11.15;;;;;;;33.33;31.49;100358.94;4895469;28;96690;-84
2022/08/03 10:44:19;;;;;;;11.55;10.85;;;;;;;33.12;31.61;100357.13;4879720;28;98972;-84
2022/08/03 10:46:46;;;;;;;;;;;;;;;32.92;32.44;100354.22;4892245;28;97446;-84
2022/08/03 10:49:14;;;;;;;12.07;11.25;;;;;;;33.00;31.89;100351.41;4872744;28;101412;-84
2022/08/03 10:51:41;;;;;;;11.60;10.85;;;;;;;32.77;31.88;100348.06;4894147;28;96926;-84
2022/08/03 10:54:36;;;;;;;11.38;10.63;;;;;;;32.51;32.52;100352.22;4911446;28;96759;-84
2022/08/03 10:57:44;;;;;;;12.60;11.80;;;;;;;32.40;32.98;100348.09;4910774;28;101086;-84
2022/08/03 10:59:53;;;;;;;12.30;11.60;;;;;;;32.43;32.58;100336.84;4902889;28;98457;-84
2022/08/03 11:02:19;;;;;;;11.57;10.98;;;;;;;32.42;32.70;100353.34;4911709;28;96660;-84
2022/08/03 11:04:44;;;;;;;12.10;11.40;;;;;;;32.19;32.84;100351.66;4910623;28;97036;-84
2022/08/03 11:07:16;;;;;;;12.32;11.18;;;;;;;32.15;33.34;100344.94;4895713;28;98056;-84
2022/08/03 11:09:52;;;;;;;12.02;11.32;;;;;;;32.14;33.58;100351.38;4894355;28;101257;-84
2022/08/03 11:12:23;;;;;;;11.82;11.15;;;;;;;32.23;33.28;100341.25;4878779;28;96738;-83
2022/08/03 11:14:49;;;;;;;12.00;11.20;;;;;;;32.27;32.73;100344.44;4894542;28;96822;-84